Flag for USA

Past Weather in 41°12'17.8"N, 96°01'19.1"W, USA — Yesterday and Last 2 Weeks

Currently: 54 °F. Sunny. (Weather station: Millard Airport, USA). See more current weather

Past Weather in 41°12'17.8"N, 96°01'19.1"W — Graph

°F

41°12'17.8"N, 96°01'19.1"W Temperature Yesterday

Maximum temperature yesterday: 59 °F (at 4:35 pm)
Minimum temperature yesterday: 44 °F (at 11:55 pm)
Average temperature yesterday: 51 °F

High & Low Weather Summary for the Past Weeks

 TemperatureHumidityPressure
High94 °F (May 12, 3:55 pm)99% (May 15, 1:15 am)30.42 "Hg (May 15, 1:15 am)
Low37 °F (May 22, 5:15 am)20% (May 9, 2:35 pm)29.27 "Hg (May 19, 7:55 pm)
Average69 °F60%29.84 "Hg
* Reported May 7 8:35 am — May 22 8:35 am, 41°12'17.8"N, 96°01'19.1"W. Weather by CustomWeather, © 2022

Note: Actual official high and low records may vary slightly from our data, if they occured in-between our weather recording intervals... More about our weather records

41°12'17.8"N, 96°01'19.1"W Weather History for the Previous 24 Hours

Scroll right to see more
 ConditionsComfort  
Time TempWeatherWind HumidityBarometerVisibility
8:35 am
Sun, May 22
51 °FSunny.5 mph54%30.42 "Hg10 mi
7:55 am47 °FSunny.No wind63%30.42 "Hg10 mi
7:35 am45 °FSunny.No wind70%30.41 "Hg10 mi
7:15 am43 °FSunny.No wind73%30.40 "Hg10 mi
6:55 am41 °FSunny.No wind79%30.40 "Hg10 mi
6:15 am38 °FSunny.No wind86%30.38 "Hg10 mi
5:55 am39 °FClear.3 mph86%30.36 "Hg10 mi
5:35 am38 °FClear.6 mph87%30.35 "Hg10 mi
5:15 am37 °FClear.No wind88%30.35 "Hg10 mi
4:55 am38 °FClear.No wind87%30.35 "Hg10 mi
4:35 am38 °FClear.5 mph93%30.33 "Hg10 mi
4:15 am38 °FClear.No wind94%30.32 "Hg10 mi
3:55 am38 °FClear.No wind91%30.32 "Hg10 mi
3:35 am38 °FClear.No wind93%30.30 "Hg10 mi
3:15 am39 °FClear.No wind87%30.30 "Hg10 mi
2:55 am40 °FClear.No wind88%30.30 "Hg10 mi
2:35 am40 °FClear.No wind90%30.30 "Hg10 mi
1:55 am41 °FClear.No wind83%30.29 "Hg10 mi
12:55 am42 °FClear.No wind70%30.30 "Hg10 mi
12:15 am43 °FClear.No wind74%30.30 "Hg10 mi
11:55 pm
Sat, May 21
44 °FClear.No wind71%30.30 "Hg10 mi
11:35 pm44 °FClear.No wind70%30.30 "Hg10 mi
11:15 pm45 °FClear.No wind68%30.29 "Hg10 mi
10:55 pm47 °FClear.No wind57%30.28 "Hg10 mi
10:35 pm48 °FClear.No wind55%30.28 "Hg10 mi
10:15 pm49 °FClear.3 mph52%30.27 "Hg10 mi
9:55 pm50 °FClear.No wind47%30.26 "Hg10 mi
9:35 pm52 °FClear.3 mph42%30.26 "Hg10 mi
9:15 pm53 °FClear.5 mph40%30.25 "Hg10 mi
8:55 pm54 °FClear.6 mph39%30.25 "Hg10 mi
8:35 pm54 °FSunny.9 mph37%30.23 "Hg10 mi
7:55 pm56 °FScattered clouds.14 mph36%30.22 "Hg10 mi
7:15 pm56 °FPartly sunny.14 mph36%30.22 "Hg10 mi
6:35 pm58 °FPartly sunny.13 mph36%30.19 "Hg10 mi
6:15 pm57 °FScattered clouds.15 mph37%30.19 "Hg10 mi
5:55 pm58 °FScattered clouds.15 mph38%30.19 "Hg10 mi
5:35 pm58 °FScattered clouds.15 mph37%30.18 "Hg10 mi
5:15 pm59 °FScattered clouds.10 mph36%30.18 "Hg10 mi
4:35 pm59 °FScattered clouds.13 mph37%30.17 "Hg10 mi
3:55 pm58 °FScattered clouds.12 mph37%30.17 "Hg10 mi
3:15 pm59 °FScattered clouds.15 mph39%30.17 "Hg10 mi
2:55 pm58 °FSunny.12 mph38%30.17 "Hg10 mi
2:35 pm56 °FScattered clouds.10 mph41%30.18 "Hg10 mi
12:55 pm51 °FCloudy.8 mph52%30.19 "Hg10 mi
12:15 pm51 °FMore clouds than sun.8 mph57%30.20 "Hg10 mi
11:15 am49 °FMostly cloudy.5 mph62%30.19 "Hg10 mi
10:55 am49 °FCloudy.9 mph62%30.19 "Hg10 mi
10:35 am49 °FMore clouds than sun.6 mph63%30.19 "Hg10 mi
10:15 am49 °FMostly cloudy.7 mph64%30.19 "Hg10 mi
Weather by CustomWeather, © 2022

See weather overview